Stratford, WA (98853)

11:05 AM PDT on September 05, 2015 (GMT -0700)
Adrian | | Change Station
CLOSE
Current Station
Personal Weather Station
Location: Soap Lake, WA
Elevation: 1201 ft
Nearby Weather Stations

Elev 1201 ft 47.39 °N, 119.38 °W | Updated 27 seconds ago

Overcast
Overcast
66.7 °F
Feels Like 66.7 °F
N
4.0
Wind Variable Wind from North
Gusts 4.9 mph

Today
High -- | Low -- °F
--% Chance of Precip.
Yesterday
High -- | Low -- °F
Precip. -- in
6:21 AM 7:29 PM
Waning Gibbous, 46% visible
Pressure 29.91 in
Visibility 10.0 miles
Clouds Scattered Clouds 10000 ft
Dew Point 39 °F
Humidity 36%
Rainfall 0.01 in
Snow Depth Not available.
UV 4 out of 12
Pollen 3.90 out of 12
Air Quality Not available.
Flu Activity Not available.
METAR KMWH 051752Z 27010KT 10SM SCT100 18/07 A2991 RMK AO2 SLP126 60002 T01780067 10178 20117 56002
Pressure 29.91 in
Visibility 10.0 miles
Clouds Scattered Clouds 10000 ft
Dew Point 39 °F
Humidity 36%
Rainfall 0.01 in
Snow Depth Not available.
UV 4 out of 12
Pollen 3.90 out of 12
Air Quality Not available.
Flu Activity Not available.
METAR KMWH 051752Z 27010KT 10SM SCT100 18/07 A2991 RMK AO2 SLP126 60002 T01780067 10178 20117 56002

10-Day Weather Forecast

×

Almanac

Astronomy

Sep. 05, 2015 Rise Set
Actual Time
Civil Twilight
Nautical Twilight
Astronomical Twilight
Moon
Length of Visible Light
Length of Day
Tomorrow will be .
, % of the Moon is Illuminated

Today's Extremes

State Highs State Lows

Community

WunderPhotos

Upload Photos

1,852,510 photos uploaded!

WunderBlogs® & News

Nearby

Air Quality

  Air Quality AQ Index Pollutant
Not available.

Snow Depth

Station Depth Elevation

Earthquake Activity

City Distance Mag. Time & Date
Minimum magnitude displayed is 2.5.

Coastal Water Temperatures

Place Temperature

Stations

Nearby Weather Stations

Station Location Temp. Windchill Dew Point Humidity Wind Precip. Elev Updated Type